sensor_id;sensor_type;location;lat;lon;timestamp;temperature;humidity
68485;DHT22;55472;50.060;21.960;2023-03-01T00:01:17;-4.30;86.00
68485;DHT22;55472;50.060;21.960;2023-03-01T00:03:45;-4.30;86.00
68485;DHT22;55472;50.060;21.960;2023-03-01T00:06:12;-4.30;85.90
68485;DHT22;55472;50.060;21.960;2023-03-01T00:08:38;-4.30;85.60
68485;DHT22;55472;50.060;21.960;2023-03-01T00:13:45;-4.40;83.80
68485;DHT22;55472;50.060;21.960;2023-03-01T00:16:19;-4.40;83.80
68485;DHT22;55472;50.060;21.960;2023-03-01T00:18:49;-4.50;83.80
68485;DHT22;55472;50.060;21.960;2023-03-01T00:21:17;-4.50;83.40
68485;DHT22;55472;50.060;21.960;2023-03-01T00:23:43;-4.50;83.20
68485;DHT22;55472;50.060;21.960;2023-03-01T00:26:12;-4.50;83.70
68485;DHT22;55472;50.060;21.960;2023-03-01T00:28:39;-4.50;83.10
68485;DHT22;55472;50.060;21.960;2023-03-01T00:31:07;-4.50;83.10
68485;DHT22;55472;50.060;21.960;2023-03-01T00:33:35;-4.60;83.30
68485;DHT22;55472;50.060;21.960;2023-03-01T00:36:02;-4.70;83.20
68485;DHT22;55472;50.060;21.960;2023-03-01T00:38:29;-4.70;83.20
68485;DHT22;55472;50.060;21.960;2023-03-01T00:40:55;-4.70;83.60
68485;DHT22;55472;50.060;21.960;2023-03-01T00:43:29;-4.80;83.80
68485;DHT22;55472;50.060;21.960;2023-03-01T00:46:01;-4.80;83.20
68485;DHT22;55472;50.060;21.960;2023-03-01T00:48:27;-4.90;82.60
68485;DHT22;55472;50.060;21.960;2023-03-01T00:50:53;-4.90;83.40
68485;DHT22;55472;50.060;21.960;2023-03-01T00:53:19;-4.90;82.90
68485;DHT22;55472;50.060;21.960;2023-03-01T00:55:46;-4.90;83.40
68485;DHT22;55472;50.060;21.960;2023-03-01T00:58:12;-5.00;83.80
68485;DHT22;55472;50.060;21.960;2023-03-01T01:00:38;-5.00;84.10
68485;DHT22;55472;50.060;21.960;2023-03-01T01:03:04;-5.00;83.80
68485;DHT22;55472;50.060;21.960;2023-03-01T01:05:30;-5.00;83.80
68485;DHT22;55472;50.060;21.960;2023-03-01T01:08:00;-5.00;83.50
68485;DHT22;55472;50.060;21.960;2023-03-01T01:10:26;-5.00;83.20
68485;DHT22;55472;50.060;21.960;2023-03-01T01:12:52;-5.10;82.90
68485;DHT22;55472;50.060;21.960;2023-03-01T01:15:19;-5.10;82.90
68485;DHT22;55472;50.060;21.960;2023-03-01T01:17:45;-5.20;83.40
68485;DHT22;55472;50.060;21.960;2023-03-01T01:20:12;-5.20;83.70
68485;DHT22;55472;50.060;21.960;2023-03-01T01:22:38;-5.20;83.50
68485;DHT22;55472;50.060;21.960;2023-03-01T01:25:05;-5.20;83.50
68485;DHT22;55472;50.060;21.960;2023-03-01T01:27:31;-5.20;83.20
68485;DHT22;55472;50.060;21.960;2023-03-01T01:29:57;-5.30;83.60
68485;DHT22;55472;50.060;21.960;2023-03-01T01:32:23;-5.30;84.50
68485;DHT22;55472;50.060;21.960;2023-03-01T01:34:50;-5.30;85.40
68485;DHT22;55472;50.060;21.960;2023-03-01T01:37:16;-5.30;86.20
68485;DHT22;55472;50.060;21.960;2023-03-01T01:39:42;-5.30;87.10
68485;DHT22;55472;50.060;21.960;2023-03-01T01:42:18;-5.30;87.70
68485;DHT22;55472;50.060;21.960;2023-03-01T01:44:46;-5.20;87.90
68485;DHT22;55472;50.060;21.960;2023-03-01T01:47:16;-5.20;87.90
68485;DHT22;55472;50.060;21.960;2023-03-01T01:49:55;-5.20;87.30
68485;DHT22;55472;50.060;21.960;2023-03-01T01:52:31;-5.20;87.00
68485;DHT22;55472;50.060;21.960;2023-03-01T01:55:10;-5.30;85.70
68485;DHT22;55472;50.060;21.960;2023-03-01T01:57:44;-5.40;86.00
68485;DHT22;55472;50.060;21.960;2023-03-01T02:00:16;-5.40;86.40
68485;DHT22;55472;50.060;21.960;2023-03-01T02:02:48;-5.40;86.50
68485;DHT22;55472;50.060;21.960;2023-03-01T02:06:34;-5.40;86.60
68485;DHT22;55472;50.060;21.960;2023-03-01T02:08:48;-5.40;85.70
68485;DHT22;55472;50.060;21.960;2023-03-01T02:11:17;-5.50;85.30
68485;DHT22;55472;50.060;21.960;2023-03-01T02:13:44;-5.50;85.40
68485;DHT22;55472;50.060;21.960;2023-03-01T02:16:14;-5.50;85.10
68485;DHT22;55472;50.060;21.960;2023-03-01T02:18:42;-5.50;84.50
68485;DHT22;55472;50.060;21.960;2023-03-01T02:27:17;-5.60;84.50
68485;DHT22;55472;50.060;21.960;2023-03-01T02:29:50;-5.60;85.20
68485;DHT22;55472;50.060;21.960;2023-03-01T02:32:17;-5.60;85.80
68485;DHT22;55472;50.060;21.960;2023-03-01T02:34:54;-5.70;86.00
68485;DHT22;55472;50.060;21.960;2023-03-01T02:37:22;-5.70;85.90
68485;DHT22;55472;50.060;21.960;2023-03-01T02:39:57;-5.70;86.30
68485;DHT22;55472;50.060;21.960;2023-03-01T02:42:33;-5.70;86.40
68485;DHT22;55472;50.060;21.960;2023-03-01T02:45:02;-5.80;86.00
68485;DHT22;55472;50.060;21.960;2023-03-01T02:47:29;-5.70;85.70
68485;DHT22;55472;50.060;21.960;2023-03-01T02:49:55;-5.80;85.80
68485;DHT22;55472;50.060;21.960;2023-03-01T02:55:17;-5.90;84.60
68485;DHT22;55472;50.060;21.960;2023-03-01T02:57:45;-6.10;85.40
68485;DHT22;55472;50.060;21.960;2023-03-01T03:00:23;-6.10;86.20
68485;DHT22;55472;50.060;21.960;2023-03-01T03:02:53;-6.10;86.80
68485;DHT22;55472;50.060;21.960;2023-03-01T03:05:29;-6.10;87.10
68485;DHT22;55472;50.060;21.960;2023-03-01T03:08:00;-6.00;86.90
68485;DHT22;55472;50.060;21.960;2023-03-01T03:10:30;-6.00;87.50
68485;DHT22;55472;50.060;21.960;2023-03-01T03:13:07;-6.00;88.00
68485;DHT22;55472;50.060;21.960;2023-03-01T03:15:36;-6.00;88.30
68485;DHT22;55472;50.060;21.960;2023-03-01T03:18:06;-6.00;88.50
68485;DHT22;55472;50.060;21.960;2023-03-01T03:20:36;-6.00;88.40
68485;DHT22;55472;50.060;21.960;2023-03-01T03:23:04;-6.00;88.20
68485;DHT22;55472;50.060;21.960;2023-03-01T03:25:30;-5.90;87.80
68485;DHT22;55472;50.060;21.960;2023-03-01T03:27:57;-5.90;87.70
68485;DHT22;55472;50.060;21.960;2023-03-01T03:30:31;-5.90;87.10
68485;DHT22;55472;50.060;21.960;2023-03-01T03:32:58;-6.00;86.40
68485;DHT22;55472;50.060;21.960;2023-03-01T03:35:39;-6.00;85.50
68485;DHT22;55472;50.060;21.960;2023-03-01T03:38:11;-6.10;86.20
68485;DHT22;55472;50.060;21.960;2023-03-01T03:40:47;-6.00;86.30
68485;DHT22;55472;50.060;21.960;2023-03-01T03:43:20;-6.10;86.30
68485;DHT22;55472;50.060;21.960;2023-03-01T03:45:51;-6.10;86.60
68485;DHT22;55472;50.060;21.960;2023-03-01T03:48:18;-6.10;86.70
68485;DHT22;55472;50.060;21.960;2023-03-01T03:50:49;-6.10;86.70
68485;DHT22;55472;50.060;21.960;2023-03-01T03:53:17;-6.10;86.10
68485;DHT22;55472;50.060;21.960;2023-03-01T03:55:44;-6.10;85.90
68485;DHT22;55472;50.060;21.960;2023-03-01T03:58:11;-6.10;85.80
68485;DHT22;55472;50.060;21.960;2023-03-01T04:00:39;-6.10;85.60
68485;DHT22;55472;50.060;21.960;2023-03-01T04:03:08;-6.10;85.70
68485;DHT22;55472;50.060;21.960;2023-03-01T04:05:35;-6.20;86.00
68485;DHT22;55472;50.060;21.960;2023-03-01T04:08:03;-6.20;85.70
68485;DHT22;55472;50.060;21.960;2023-03-01T04:10:41;-6.20;85.10
68485;DHT22;55472;50.060;21.960;2023-03-01T04:13:12;-6.30;85.70
68485;DHT22;55472;50.060;21.960;2023-03-01T04:15:39;-6.30;86.30
68485;DHT22;55472;50.060;21.960;2023-03-01T04:18:06;-6.30;86.30
68485;DHT22;55472;50.060;21.960;2023-03-01T04:20:34;-6.30;86.30
68485;DHT22;55472;50.060;21.960;2023-03-01T04:23:07;-6.30;86.70
68485;DHT22;55472;50.060;21.960;2023-03-01T04:25:55;-6.40;86.40
68485;DHT22;55472;50.060;21.960;2023-03-01T04:28:26;-6.40;86.40
68485;DHT22;55472;50.060;21.960;2023-03-01T04:31:07;-6.40;86.30
68485;DHT22;55472;50.060;21.960;2023-03-01T04:33:45;-6.40;86.00
68485;DHT22;55472;50.060;21.960;2023-03-01T04:36:14;-6.40;85.70
68485;DHT22;55472;50.060;21.960;2023-03-01T04:38:42;-6.50;85.70
68485;DHT22;55472;50.060;21.960;2023-03-01T04:41:14;-6.50;85.80
68485;DHT22;55472;50.060;21.960;2023-03-01T04:43:43;-6.50;86.00
68485;DHT22;55472;50.060;21.960;2023-03-01T04:46:12;-6.50;86.10
68485;DHT22;55472;50.060;21.960;2023-03-01T04:48:41;-6.50;86.00
68485;DHT22;55472;50.060;21.960;2023-03-01T04:51:08;-6.60;86.10
68485;DHT22;55472;50.060;21.960;2023-03-01T04:53:35;-6.70;86.00
68485;DHT22;55472;50.060;21.960;2023-03-01T04:56:04;-6.70;86.00
68485;DHT22;55472;50.060;21.960;2023-03-01T04:58:31;-6.70;86.30
68485;DHT22;55472;50.060;21.960;2023-03-01T05:00:57;-6.70;86.30
68485;DHT22;55472;50.060;21.960;2023-03-01T05:03:24;-6.70;86.00
68485;DHT22;55472;50.060;21.960;2023-03-01T05:05:51;-6.70;86.40
68485;DHT22;55472;50.060;21.960;2023-03-01T05:08:18;-6.80;86.20
68485;DHT22;55472;50.060;21.960;2023-03-01T05:10:52;-6.80;86.10
68485;DHT22;55472;50.060;21.960;2023-03-01T05:13:20;-6.80;85.90
68485;DHT22;55472;50.060;21.960;2023-03-01T05:15:54;-6.80;85.70
68485;DHT22;55472;50.060;21.960;2023-03-01T05:18:26;-6.80;86.00
68485;DHT22;55472;50.060;21.960;2023-03-01T05:20:54;-6.70;86.00
68485;DHT22;55472;50.060;21.960;2023-03-01T05:23:24;-6.80;85.80
68485;DHT22;55472;50.060;21.960;2023-03-01T05:25:51;-6.80;85.70
68485;DHT22;55472;50.060;21.960;2023-03-01T05:28:19;-6.80;85.20
68485;DHT22;55472;50.060;21.960;2023-03-01T05:30:46;-6.80;85.40
68485;DHT22;55472;50.060;21.960;2023-03-01T05:33:12;-6.80;85.60
68485;DHT22;55472;50.060;21.960;2023-03-01T05:35:43;-6.80;86.30
68485;DHT22;55472;50.060;21.960;2023-03-01T05:38:11;-6.80;86.80
68485;DHT22;55472;50.060;21.960;2023-03-01T05:40:45;-6.70;87.50
68485;DHT22;55472;50.060;21.960;2023-03-01T05:43:15;-6.70;88.20
68485;DHT22;55472;50.060;21.960;2023-03-01T05:45:42;-6.60;88.80
68485;DHT22;55472;50.060;21.960;2023-03-01T05:48:10;-6.40;89.10
68485;DHT22;55472;50.060;21.960;2023-03-01T05:50:39;-6.40;89.60
68485;DHT22;55472;50.060;21.960;2023-03-01T05:53:11;-6.20;90.00
68485;DHT22;55472;50.060;21.960;2023-03-01T05:55:42;-6.10;90.20
68485;DHT22;55472;50.060;21.960;2023-03-01T05:58:15;-6.00;90.50
68485;DHT22;55472;50.060;21.960;2023-03-01T06:00:46;-5.80;90.60
68485;DHT22;55472;50.060;21.960;2023-03-01T06:03:15;-5.70;90.40
68485;DHT22;55472;50.060;21.960;2023-03-01T06:05:43;-5.60;90.40
68485;DHT22;55472;50.060;21.960;2023-03-01T06:08:10;-5.40;90.20
68485;DHT22;55472;50.060;21.960;2023-03-01T06:10:37;-5.30;90.20
68485;DHT22;55472;50.060;21.960;2023-03-01T06:13:05;-5.20;90.10
68485;DHT22;55472;50.060;21.960;2023-03-01T06:15:31;-5.10;90.10
68485;DHT22;55472;50.060;21.960;2023-03-01T06:17:57;-4.90;90.00
68485;DHT22;55472;50.060;21.960;2023-03-01T06:20:26;-4.80;89.80
68485;DHT22;55472;50.060;21.960;2023-03-01T06:22:54;-4.60;89.50
68485;DHT22;55472;50.060;21.960;2023-03-01T06:25:24;-4.50;89.10
68485;DHT22;55472;50.060;21.960;2023-03-01T06:27:51;-4.30;89.00
68485;DHT22;55472;50.060;21.960;2023-03-01T06:30:20;-4.20;88.60
68485;DHT22;55472;50.060;21.960;2023-03-01T06:32:48;-4.10;88.40
68485;DHT22;55472;50.060;21.960;2023-03-01T06:35:16;-3.90;88.20
68485;DHT22;55472;50.060;21.960;2023-03-01T06:37:47;-3.80;88.10
68485;DHT22;55472;50.060;21.960;2023-03-01T06:40:15;-3.60;87.60
68485;DHT22;55472;50.060;21.960;2023-03-01T06:42:43;-3.40;87.20
68485;DHT22;55472;50.060;21.960;2023-03-01T06:45:14;-3.20;86.90
68485;DHT22;55472;50.060;21.960;2023-03-01T06:47:44;-3.00;86.40
68485;DHT22;55472;50.060;21.960;2023-03-01T06:50:12;-2.80;86.00
68485;DHT22;55472;50.060;21.960;2023-03-01T06:52:39;-2.60;85.60
68485;DHT22;55472;50.060;21.960;2023-03-01T06:55:06;-2.40;85.40
68485;DHT22;55472;50.060;21.960;2023-03-01T06:57:33;-2.10;84.70
68485;DHT22;55472;50.060;21.960;2023-03-01T06:59:59;-1.90;83.70
68485;DHT22;55472;50.060;21.960;2023-03-01T07:02:25;-1.70;82.90
68485;DHT22;55472;50.060;21.960;2023-03-01T07:04:51;-1.50;82.00
68485;DHT22;55472;50.060;21.960;2023-03-01T07:07:18;-1.40;81.40
68485;DHT22;55472;50.060;21.960;2023-03-01T07:09:45;-1.20;81.00
68485;DHT22;55472;50.060;21.960;2023-03-01T07:12:12;-1.00;80.70
68485;DHT22;55472;50.060;21.960;2023-03-01T07:14:38;-0.70;79.70
68485;DHT22;55472;50.060;21.960;2023-03-01T07:17:04;-0.50;78.50
68485;DHT22;55472;50.060;21.960;2023-03-01T07:19:30;-0.30;78.10
68485;DHT22;55472;50.060;21.960;2023-03-01T07:21:57;-0.10;78.10
68485;DHT22;55472;50.060;21.960;2023-03-01T07:24:23;0.10;77.40
68485;DHT22;55472;50.060;21.960;2023-03-01T07:26:50;0.30;76.70
68485;DHT22;55472;50.060;21.960;2023-03-01T07:29:17;0.40;76.10
68485;DHT22;55472;50.060;21.960;2023-03-01T07:31:44;0.60;75.20
68485;DHT22;55472;50.060;21.960;2023-03-01T07:34:10;0.80;75.00
68485;DHT22;55472;50.060;21.960;2023-03-01T07:36:37;1.00;74.50
68485;DHT22;55472;50.060;21.960;2023-03-01T07:39:05;1.20;73.70
68485;DHT22;55472;50.060;21.960;2023-03-01T07:41:31;1.50;73.20
68485;DHT22;55472;50.060;21.960;2023-03-01T07:43:57;1.70;71.80
68485;DHT22;55472;50.060;21.960;2023-03-01T07:46:24;2.00;71.50
68485;DHT22;55472;50.060;21.960;2023-03-01T07:48:50;2.20;69.80
68485;DHT22;55472;50.060;21.960;2023-03-01T07:51:16;2.50;69.90
68485;DHT22;55472;50.060;21.960;2023-03-01T07:53:44;2.90;69.00
68485;DHT22;55472;50.060;21.960;2023-03-01T07:56:13;3.20;68.40
68485;DHT22;55472;50.060;21.960;2023-03-01T07:58:42;3.60;67.30
68485;DHT22;55472;50.060;21.960;2023-03-01T08:01:11;4.00;65.60
68485;DHT22;55472;50.060;21.960;2023-03-01T08:03:39;4.40;64.40
68485;DHT22;55472;50.060;21.960;2023-03-01T08:06:09;4.70;63.00
68485;DHT22;55472;50.060;21.960;2023-03-01T08:08:36;5.10;61.60
68485;DHT22;55472;50.060;21.960;2023-03-01T08:11:05;5.50;61.00
68485;DHT22;55472;50.060;21.960;2023-03-01T08:13:32;6.00;59.80
68485;DHT22;55472;50.060;21.960;2023-03-01T08:16:07;6.40;57.80
68485;DHT22;55472;50.060;21.960;2023-03-01T08:18:38;7.00;55.30
68485;DHT22;55472;50.060;21.960;2023-03-01T08:21:07;7.80;52.90
68485;DHT22;55472;50.060;21.960;2023-03-01T08:23:38;9.00;50.70
68485;DHT22;55472;50.060;21.960;2023-03-01T08:26:17;10.70;46.90
68485;DHT22;55472;50.060;21.960;2023-03-01T08:28:45;12.80;42.00
68485;DHT22;55472;50.060;21.960;2023-03-01T08:31:34;14.90;38.60
68485;DHT22;55472;50.060;21.960;2023-03-01T08:34:03;16.70;35.00
68485;DHT22;55472;50.060;21.960;2023-03-01T08:36:36;18.50;32.20
68485;DHT22;55472;50.060;21.960;2023-03-01T08:39:06;19.70;30.00
68485;DHT22;55472;50.060;21.960;2023-03-01T08:41:33;21.20;28.50
68485;DHT22;55472;50.060;21.960;2023-03-01T08:43:59;22.40;26.80
68485;DHT22;55472;50.060;21.960;2023-03-01T08:46:27;23.50;25.80
68485;DHT22;55472;50.060;21.960;2023-03-01T08:48:55;24.60;24.70
68485;DHT22;55472;50.060;21.960;2023-03-01T08:51:22;25.30;24.40
68485;DHT22;55472;50.060;21.960;2023-03-01T08:53:49;26.00;23.70
68485;DHT22;55472;50.060;21.960;2023-03-01T08:56:17;26.60;23.00
68485;DHT22;55472;50.060;21.960;2023-03-01T08:58:48;27.10;22.60
68485;DHT22;55472;50.060;21.960;2023-03-01T09:01:16;27.50;21.80
68485;DHT22;55472;50.060;21.960;2023-03-01T09:03:44;28.20;21.60
68485;DHT22;55472;50.060;21.960;2023-03-01T09:06:11;28.80;21.10
68485;DHT22;55472;50.060;21.960;2023-03-01T09:08:40;29.10;20.80
68485;DHT22;55472;50.060;21.960;2023-03-01T09:11:09;29.10;20.50
68485;DHT22;55472;50.060;21.960;2023-03-01T09:13:37;29.00;20.20
68485;DHT22;55472;50.060;21.960;2023-03-01T09:16:17;28.80;20.60
68485;DHT22;55472;50.060;21.960;2023-03-01T09:18:48;28.70;20.70
68485;DHT22;55472;50.060;21.960;2023-03-01T09:21:17;29.00;20.70
68485;DHT22;55472;50.060;21.960;2023-03-01T09:23:46;29.50;20.20
68485;DHT22;55472;50.060;21.960;2023-03-01T09:26:16;29.40;20.70
68485;DHT22;55472;50.060;21.960;2023-03-01T09:28:55;29.00;21.00
68485;DHT22;55472;50.060;21.960;2023-03-01T09:31:31;27.00;21.60
68485;DHT22;55472;50.060;21.960;2023-03-01T09:33:58;24.70;23.20
68485;DHT22;55472;50.060;21.960;2023-03-01T09:36:24;23.00;24.30
68485;DHT22;55472;50.060;21.960;2023-03-01T09:38:54;21.40;25.40
68485;DHT22;55472;50.060;21.960;2023-03-01T09:47:44;16.80;30.20
68485;DHT22;55472;50.060;21.960;2023-03-01T09:50:21;16.10;30.90
68485;DHT22;55472;50.060;21.960;2023-03-01T09:55:44;18.60;28.40
68485;DHT22;55472;50.060;21.960;2023-03-01T10:09:48;19.10;26.70
68485;DHT22;55472;50.060;21.960;2023-03-01T10:12:30;18.10;27.60
68485;DHT22;55472;50.060;21.960;2023-03-01T10:18:06;16.20;29.80
68485;DHT22;55472;50.060;21.960;2023-03-01T10:21:02;15.40;30.70
68485;DHT22;55472;50.060;21.960;2023-03-01T10:23:34;14.40;31.80
68485;DHT22;55472;50.060;21.960;2023-03-01T10:26:32;13.90;32.60
68485;DHT22;55472;50.060;21.960;2023-03-01T10:29:31;13.30;33.40
68485;DHT22;55472;50.060;21.960;2023-03-01T10:32:05;12.80;34.00
68485;DHT22;55472;50.060;21.960;2023-03-01T10:34:34;12.50;34.60
68485;DHT22;55472;50.060;21.960;2023-03-01T10:37:20;12.60;34.80
68485;DHT22;55472;50.060;21.960;2023-03-01T10:40:14;12.90;34.70
68485;DHT22;55472;50.060;21.960;2023-03-01T10:42:48;13.30;33.90
68485;DHT22;55472;50.060;21.960;2023-03-01T10:45:38;13.10;33.20
68485;DHT22;55472;50.060;21.960;2023-03-01T10:48:17;13.00;34.10
68485;DHT22;55472;50.060;21.960;2023-03-01T10:53:40;12.60;34.90
68485;DHT22;55472;50.060;21.960;2023-03-01T10:56:17;12.70;35.20
68485;DHT22;55472;50.060;21.960;2023-03-01T10:59:03;12.80;34.50
68485;DHT22;55472;50.060;21.960;2023-03-01T11:01:35;12.90;34.10
68485;DHT22;55472;50.060;21.960;2023-03-01T11:04:12;13.10;34.00
68485;DHT22;55472;50.060;21.960;2023-03-01T11:06:58;13.40;33.70
68485;DHT22;55472;50.060;21.960;2023-03-01T11:09:42;13.60;33.20
68485;DHT22;55472;50.060;21.960;2023-03-01T11:12:14;14.00;33.10
68485;DHT22;55472;50.060;21.960;2023-03-01T11:14:53;14.50;33.20
68485;DHT22;55472;50.060;21.960;2023-03-01T11:17:31;15.10;32.40
68485;DHT22;55472;50.060;21.960;2023-03-01T11:20:25;15.60;30.90
68485;DHT22;55472;50.060;21.960;2023-03-01T11:23:10;15.50;30.00
68485;DHT22;55472;50.060;21.960;2023-03-01T11:25:58;14.90;30.30
68485;DHT22;55472;50.060;21.960;2023-03-01T11:28:28;15.00;31.20
68485;DHT22;55472;50.060;21.960;2023-03-01T11:31:21;15.40;31.30
68485;DHT22;55472;50.060;21.960;2023-03-01T11:34:00;15.30;30.70
68485;DHT22;55472;50.060;21.960;2023-03-01T11:39:34;16.10;30.30
68485;DHT22;55472;50.060;21.960;2023-03-01T11:42:15;16.30;29.10
68485;DHT22;55472;50.060;21.960;2023-03-01T11:44:47;16.40;28.40
68485;DHT22;55472;50.060;21.960;2023-03-01T11:50:16;15.10;29.20
68485;DHT22;55472;50.060;21.960;2023-03-01T12:16:15;15.30;28.30
68485;DHT22;55472;50.060;21.960;2023-03-01T12:19:13;15.00;27.70
68485;DHT22;55472;50.060;21.960;2023-03-01T12:22:05;15.10;27.70
68485;DHT22;55472;50.060;21.960;2023-03-01T12:30:39;15.30;28.20
68485;DHT22;55472;50.060;21.960;2023-03-01T12:33:17;15.40;28.10
68485;DHT22;55472;50.060;21.960;2023-03-01T12:47:24;14.60;29.10
68485;DHT22;55472;50.060;21.960;2023-03-01T12:50:11;14.40;29.80
68485;DHT22;55472;50.060;21.960;2023-03-01T12:52:55;14.30;29.40
68485;DHT22;55472;50.060;21.960;2023-03-01T12:55:29;13.80;29.60
68485;DHT22;55472;50.060;21.960;2023-03-01T12:58:13;13.80;29.50
68485;DHT22;55472;50.060;21.960;2023-03-01T13:01:31;13.90;29.10
68485;DHT22;55472;50.060;21.960;2023-03-01T13:07:50;14.20;28.10
68485;DHT22;55472;50.060;21.960;2023-03-01T13:10:46;14.40;28.10
68485;DHT22;55472;50.060;21.960;2023-03-01T13:13:47;14.20;28.10
68485;DHT22;55472;50.060;21.960;2023-03-01T13:16:40;14.00;28.20
68485;DHT22;55472;50.060;21.960;2023-03-01T13:19:30;14.00;28.50
68485;DHT22;55472;50.060;21.960;2023-03-01T13:21:58;13.90;28.30
68485;DHT22;55472;50.060;21.960;2023-03-01T13:24:38;13.80;28.20
68485;DHT22;55472;50.060;21.960;2023-03-01T13:27:22;13.90;28.20
68485;DHT22;55472;50.060;21.960;2023-03-01T13:29:58;13.70;28.80
68485;DHT22;55472;50.060;21.960;2023-03-01T13:32:36;13.50;28.90
68485;DHT22;55472;50.060;21.960;2023-03-01T13:37:43;13.20;29.30
68485;DHT22;55472;50.060;21.960;2023-03-01T13:42:53;12.70;29.80
68485;DHT22;55472;50.060;21.960;2023-03-01T13:45:38;12.60;29.10
68485;DHT22;55472;50.060;21.960;2023-03-01T13:48:23;12.50;30.00
68485;DHT22;55472;50.060;21.960;2023-03-01T13:51:03;12.60;30.50
68485;DHT22;55472;50.060;21.960;2023-03-01T13:53:42;12.60;29.60
68485;DHT22;55472;50.060;21.960;2023-03-01T13:56:25;12.70;29.80
68485;DHT22;55472;50.060;21.960;2023-03-01T13:58:58;12.70;29.80
68485;DHT22;55472;50.060;21.960;2023-03-01T14:01:35;12.80;29.70
68485;DHT22;55472;50.060;21.960;2023-03-01T14:04:03;12.80;30.60
68485;DHT22;55472;50.060;21.960;2023-03-01T14:06:52;12.90;30.60
68485;DHT22;55472;50.060;21.960;2023-03-01T14:09:20;12.90;30.40
68485;DHT22;55472;50.060;21.960;2023-03-01T14:12:06;12.80;30.50
68485;DHT22;55472;50.060;21.960;2023-03-01T14:20:22;12.30;30.30
68485;DHT22;55472;50.060;21.960;2023-03-01T14:22:52;12.30;30.80
68485;DHT22;55472;50.060;21.960;2023-03-01T14:25:36;12.10;31.00
68485;DHT22;55472;50.060;21.960;2023-03-01T14:28:15;12.10;31.30
68485;DHT22;55472;50.060;21.960;2023-03-01T14:30:54;12.00;31.60
68485;DHT22;55472;50.060;21.960;2023-03-01T14:33:26;12.00;32.20
68485;DHT22;55472;50.060;21.960;2023-03-01T14:36:05;12.00;32.20
68485;DHT22;55472;50.060;21.960;2023-03-01T14:41:24;11.90;32.10
68485;DHT22;55472;50.060;21.960;2023-03-01T14:43:58;11.90;31.70
68485;DHT22;55472;50.060;21.960;2023-03-01T14:46:32;11.80;31.90
68485;DHT22;55472;50.060;21.960;2023-03-01T14:49:22;11.80;32.30
68485;DHT22;55472;50.060;21.960;2023-03-01T14:52:02;11.70;32.00
68485;DHT22;55472;50.060;21.960;2023-03-01T14:54:44;11.70;31.90
68485;DHT22;55472;50.060;21.960;2023-03-01T14:57:18;11.50;32.10
68485;DHT22;55472;50.060;21.960;2023-03-01T14:59:52;11.50;32.10
68485;DHT22;55472;50.060;21.960;2023-03-01T15:02:24;11.40;32.10
68485;DHT22;55472;50.060;21.960;2023-03-01T15:04:54;11.20;32.00
68485;DHT22;55472;50.060;21.960;2023-03-01T15:07:46;11.10;32.30
68485;DHT22;55472;50.060;21.960;2023-03-01T15:10:22;11.00;32.40
68485;DHT22;55472;50.060;21.960;2023-03-01T15:12:53;10.90;32.80
68485;DHT22;55472;50.060;21.960;2023-03-01T15:17:53;10.60;33.20
68485;DHT22;55472;50.060;21.960;2023-03-01T15:20:25;10.40;34.20
68485;DHT22;55472;50.060;21.960;2023-03-01T15:22:55;10.20;33.90
68485;DHT22;55472;50.060;21.960;2023-03-01T15:25:25;10.00;34.40
68485;DHT22;55472;50.060;21.960;2023-03-01T15:27:53;9.80;34.60
68485;DHT22;55472;50.060;21.960;2023-03-01T15:30:29;9.60;34.40
68485;DHT22;55472;50.060;21.960;2023-03-01T15:35:57;9.20;35.00
68485;DHT22;55472;50.060;21.960;2023-03-01T15:38:34;9.00;35.30
68485;DHT22;55472;50.060;21.960;2023-03-01T15:41:36;8.80;35.00
68485;DHT22;55472;50.060;21.960;2023-03-01T15:44:17;8.50;35.30
68485;DHT22;55472;50.060;21.960;2023-03-01T15:47:22;8.30;35.20
68485;DHT22;55472;50.060;21.960;2023-03-01T15:49:52;8.10;36.60
68485;DHT22;55472;50.060;21.960;2023-03-01T15:52:33;7.90;36.60
68485;DHT22;55472;50.060;21.960;2023-03-01T15:55:21;7.70;36.40
68485;DHT22;55472;50.060;21.960;2023-03-01T15:57:50;7.60;37.60
68485;DHT22;55472;50.060;21.960;2023-03-01T16:00:26;7.40;39.20
68485;DHT22;55472;50.060;21.960;2023-03-01T16:02:52;7.30;40.10
68485;DHT22;55472;50.060;21.960;2023-03-01T16:05:25;7.10;40.80
68485;DHT22;55472;50.060;21.960;2023-03-01T16:07:54;6.90;40.80
68485;DHT22;55472;50.060;21.960;2023-03-01T16:10:21;6.80;41.10
68485;DHT22;55472;50.060;21.960;2023-03-01T16:12:49;6.60;42.20
68485;DHT22;55472;50.060;21.960;2023-03-01T16:15:25;6.40;43.40
68485;DHT22;55472;50.060;21.960;2023-03-01T16:17:56;6.20;43.70
68485;DHT22;55472;50.060;21.960;2023-03-01T16:20:24;6.00;44.50
68485;DHT22;55472;50.060;21.960;2023-03-01T16:22:51;5.80;44.50
68485;DHT22;55472;50.060;21.960;2023-03-01T16:25:19;5.70;44.90
68485;DHT22;55472;50.060;21.960;2023-03-01T16:27:49;5.40;45.50
68485;DHT22;55472;50.060;21.960;2023-03-01T16:30:19;5.20;45.20
68485;DHT22;55472;50.060;21.960;2023-03-01T16:32:48;5.10;46.10
68485;DHT22;55472;50.060;21.960;2023-03-01T16:35:16;4.90;47.80
68485;DHT22;55472;50.060;21.960;2023-03-01T16:37:45;4.80;47.50
68485;DHT22;55472;50.060;21.960;2023-03-01T16:40:25;4.70;48.60
68485;DHT22;55472;50.060;21.960;2023-03-01T16:42:54;4.50;47.70
68485;DHT22;55472;50.060;21.960;2023-03-01T16:45:25;4.40;49.00
68485;DHT22;55472;50.060;21.960;2023-03-01T16:47:52;4.40;50.60
68485;DHT22;55472;50.060;21.960;2023-03-01T16:50:19;4.20;50.10
68485;DHT22;55472;50.060;21.960;2023-03-01T16:52:45;4.10;51.60
68485;DHT22;55472;50.060;21.960;2023-03-01T16:55:11;4.00;52.50
68485;DHT22;55472;50.060;21.960;2023-03-01T16:57:38;3.90;52.30
68485;DHT22;55472;50.060;21.960;2023-03-01T17:00:07;3.80;51.90
68485;DHT22;55472;50.060;21.960;2023-03-01T17:02:39;3.70;51.10
68485;DHT22;55472;50.060;21.960;2023-03-01T17:05:07;3.50;51.60
68485;DHT22;55472;50.060;21.960;2023-03-01T17:07:35;3.40;51.60
68485;DHT22;55472;50.060;21.960;2023-03-01T17:10:03;3.30;52.00
68485;DHT22;55472;50.060;21.960;2023-03-01T17:12:31;3.20;52.50
68485;DHT22;55472;50.060;21.960;2023-03-01T17:14:58;3.10;52.10
68485;DHT22;55472;50.060;21.960;2023-03-01T17:17:24;2.90;52.60
68485;DHT22;55472;50.060;21.960;2023-03-01T17:19:50;2.90;53.00
68485;DHT22;55472;50.060;21.960;2023-03-01T17:22:17;2.70;53.50
68485;DHT22;55472;50.060;21.960;2023-03-01T17:24:44;2.70;54.70
68485;DHT22;55472;50.060;21.960;2023-03-01T17:27:17;2.60;56.00
68485;DHT22;55472;50.060;21.960;2023-03-01T17:29:55;2.60;56.70
68485;DHT22;55472;50.060;21.960;2023-03-01T17:32:24;2.50;57.00
68485;DHT22;55472;50.060;21.960;2023-03-01T17:34:50;2.50;56.50
68485;DHT22;55472;50.060;21.960;2023-03-01T17:37:19;2.40;56.60
68485;DHT22;55472;50.060;21.960;2023-03-01T17:39:45;2.30;57.00